Time,TemperatureF,DewpointF,PressureIn,WindDirection,WindDirectionDegrees,WindSpeedMPH,WindSpeedGustMPH,Humidity,HourlyPrecipIn,Conditions,Clouds,dailyrainin,SolarRadiationWatts/m^2,SoftwareType,DateUTC
2013-08-22 00:00:00,72.0,68.6,30.06,SW,233,13.0,16.0,89,0.00,,,0.00,0.00,VWS V14.01,2013-08-22 04:00:00,
2013-08-22 00:01:00,71.9,69.4,30.05,SW,226,12.0,16.0,92,0.00,,,0.00,0.00,VWS V14.01,2013-08-22 04:01:00,
2013-08-22 00:06:00,71.7,69.3,30.05,SW,232,15.0,17.0,92,0.00,,,0.00,0.00,VWS V14.01,2013-08-22 04:06:00,
2013-08-22 00:11:00,71.5,69.1,30.05,North,360,18.0,18.0,92,0.00,,,0.00,0.00,VWS V14.01,2013-08-22 04:11:00,
2013-08-22 00:15:00,72.1,69.0,30.06,SW,236,13.0,17.0,90,0.00,,,0.00,0.00,VWS V14.01,2013-08-22 04:15:00,
2013-08-22 00:16:00,71.5,69.4,30.05,SW,228,17.0,18.0,93,0.00,,,0.00,0.00,VWS V14.01,2013-08-22 04:16:00,
2013-08-22 00:21:00,71.4,69.3,30.05,SW,227,19.0,19.0,93,0.00,,,0.00,0.00,VWS V14.01,2013-08-22 04:21:00,
2013-08-22 00:26:00,71.3,69.2,30.05,SW,227,16.0,19.0,93,0.00,,,0.00,0.00,VWS V14.01,2013-08-22 04:26:00,
2013-08-22 00:30:00,72.1,69.0,30.06,SW,235,15.0,18.0,90,0.00,,,0.00,0.00,VWS V14.01,2013-08-22 04:30:00,
2013-08-22 00:31:00,71.3,69.2,30.05,SW,230,19.0,19.0,93,0.00,,,0.00,0.00,VWS V14.01,2013-08-22 04:31:00,
2013-08-22 00:36:00,71.2,69.1,30.05,SW,224,15.0,20.0,93,0.00,,,0.00,0.00,VWS V14.01,2013-08-22 04:36:00,
2013-08-22 00:41:00,71.2,69.4,30.05,SW,230,18.0,20.0,94,0.00,,,0.00,0.00,VWS V14.01,2013-08-22 04:41:00,
2013-08-22 00:45:00,72.0,69.2,30.06,SW,228,13.0,16.0,91,0.00,,,0.00,0.00,VWS V14.01,2013-08-22 04:45:00,
2013-08-22 00:46:00,71.3,69.5,30.05,SW,225,16.0,20.0,94,0.00,,,0.00,0.00,VWS V14.01,2013-08-22 04:46:00,
2013-08-22 00:51:00,71.2,69.4,30.05,SW,225,16.0,19.0,94,0.00,,,0.00,0.00,VWS V14.01,2013-08-22 04:51:00,
2013-08-22 00:56:00,71.2,69.4,30.05,SW,223,18.0,20.0,94,0.00,,,0.00,0.00,VWS V14.01,2013-08-22 04:56:00,
2013-08-22 01:00:00,71.9,69.4,30.05,SW,222,16.0,16.0,92,0.00,,,0.00,0.00,VWS V14.01,2013-08-22 05:00:00,
2013-08-22 01:01:00,71.2,69.4,30.05,SW,229,18.0,20.0,94,0.00,,,0.00,0.00,VWS V14.01,2013-08-22 05:01:00,
2013-08-22 01:06:00,71.0,69.5,30.05,SW,222,20.0,21.0,95,0.00,,,0.00,0.00,VWS V14.01,2013-08-22 05:06:00,
2013-08-22 01:11:00,70.8,69.3,30.05,SW,234,19.0,21.0,95,0.00,,,0.00,0.00,VWS V14.01,2013-08-22 05:11:00,
2013-08-22 01:15:00,71.5,69.4,30.05,SW,230,16.0,18.0,93,0.00,,,0.00,0.00,VWS V14.01,2013-08-22 05:15:00,
2013-08-22 01:16:00,70.5,69.0,30.05,SW,230,16.0,16.0,95,0.00,,,0.00,0.00,VWS V14.01,2013-08-22 05:16:00,
2013-08-22 01:21:00,70.1,68.6,30.05,SW,230,16.0,19.0,95,0.00,,,0.00,0.00,VWS V14.01,2013-08-22 05:21:00,
2013-08-22 01:26:00,70.0,68.5,30.05,SW,222,14.0,19.0,95,0.00,,,0.00,0.00,VWS V14.01,2013-08-22 05:26:00,
2013-08-22 01:30:00,71.3,69.2,30.05,SW,230,19.0,19.0,93,0.00,,,0.00,0.00,VWS V14.01,2013-08-22 05:30:00,
2013-08-22 01:31:00,70.0,68.8,30.05,SW,225,15.0,15.0,96,0.00,,,0.00,0.00,VWS V14.01,2013-08-22 05:31:00,
2013-08-22 01:36:00,69.9,68.7,30.05,SW,234,13.0,18.0,96,0.00,,,0.00,0.00,VWS V14.01,2013-08-22 05:36:00,
2013-08-22 01:41:00,69.9,68.7,30.05,SW,222,12.0,18.0,96,0.00,,,0.00,0.00,VWS V14.01,2013-08-22 05:41:00,
2013-08-22 01:45:00,71.3,69.5,30.05,SW,225,16.0,20.0,94,0.00,,,0.00,0.00,VWS V14.01,2013-08-22 05:45:00,
2013-08-22 01:46:00,69.9,68.7,30.05,SW,221,14.0,15.0,96,0.00,,,0.00,0.00,VWS V14.01,2013-08-22 05:46:00,
2013-08-22 01:51:00,69.9,68.7,30.05,SW,221,15.0,16.0,96,0.00,,,0.00,0.00,VWS V14.01,2013-08-22 05:51:00,
2013-08-22 01:56:00,69.9,69.0,30.06,SW,232,15.0,17.0,97,0.00,,,0.00,0.00,VWS V14.01,2013-08-22 05:56:00,
2013-08-22 02:00:00,71.2,69.4,30.05,SW,226,20.0,20.0,94,0.00,,,0.00,0.00,VWS V14.01,2013-08-22 06:00:00,
2013-08-22 02:01:00,70.0,69.1,30.06,SW,234,15.0,15.0,97,0.00,,,0.00,0.00,VWS V14.01,2013-08-22 06:01:00,
2013-08-22 02:06:00,70.0,69.1,30.06,SW,229,12.0,16.0,97,0.00,,,0.00,0.00,VWS V14.01,2013-08-22 06:06:00,
2013-08-22 02:11:00,70.1,69.2,30.05,SW,233,13.0,16.0,97,0.00,,,0.00,0.00,VWS V14.01,2013-08-22 06:11:00,
2013-08-22 02:15:00,70.4,68.9,30.05,SW,234,15.0,21.0,95,0.00,,,0.00,0.00,VWS V14.01,2013-08-22 06:15:00,
2013-08-22 02:16:00,70.1,69.2,30.06,SW,230,14.0,14.0,97,0.00,,,0.00,0.00,VWS V14.01,2013-08-22 06:16:00,
2013-08-22 02:21:00,70.2,69.3,30.06,SW,236,13.0,15.0,97,0.00,,,0.00,0.00,VWS V14.01,2013-08-22 06:21:00,
2013-08-22 02:26:00,70.3,69.4,30.06,SW,230,11.0,15.0,97,0.00,,,0.00,0.00,VWS V14.01,2013-08-22 06:26:00,
2013-08-22 02:30:00,70.0,68.8,30.05,SW,221,15.0,19.0,96,0.00,,,0.00,0.00,VWS V14.01,2013-08-22 06:30:00,
2013-08-22 02:31:00,70.4,69.5,30.06,SW,235,13.0,13.0,97,0.00,,,0.00,0.00,VWS V14.01,2013-08-22 06:31:00,
2013-08-22 02:36:00,70.4,69.5,30.06,SW,229,15.0,15.0,97,0.00,,,0.00,0.00,VWS V14.01,2013-08-22 06:36:00,
2013-08-22 02:41:00,70.4,69.5,30.06,WSW,238,15.0,15.0,97,0.00,,,0.00,0.00,VWS V14.01,2013-08-22 06:41:00,
2013-08-22 02:45:00,69.9,68.7,30.05,SSW,213,14.0,18.0,96,0.00,,,0.00,0.00,VWS V14.01,2013-08-22 06:45:00,
2013-08-22 02:46:00,70.5,69.6,30.06,SW,232,14.0,14.0,97,0.00,,,0.00,0.00,VWS V14.01,2013-08-22 06:46:00,
2013-08-22 02:51:00,70.5,69.6,30.05,SW,225,14.0,15.0,97,0.00,,,0.00,0.00,VWS V14.01,2013-08-22 06:51:00,
2013-08-22 02:56:00,70.6,69.7,30.05,SW,232,14.0,16.0,97,0.00,,,0.00,0.00,VWS V14.01,2013-08-22 06:56:00,
2013-08-22 03:00:00,70.0,69.1,30.06,SW,232,14.0,17.0,97,0.00,,,0.00,0.00,VWS V14.01,2013-08-22 07:00:00,
2013-08-22 03:01:00,70.5,69.6,30.06,SW,231,13.0,14.0,97,0.00,,,0.00,0.00,VWS V14.01,2013-08-22 07:01:00,
2013-08-22 03:06:00,70.6,69.7,30.06,SW,225,15.0,16.0,97,0.00,,,0.00,0.00,VWS V14.01,2013-08-22 07:06:00,
2013-08-22 03:11:00,70.7,69.8,30.06,WSW,240,15.0,16.0,97,0.00,,,0.00,0.00,VWS V14.01,2013-08-22 07:11:00,
2013-08-22 03:15:00,70.1,69.2,30.05,SW,233,14.0,16.0,97,0.00,,,0.00,0.00,VWS V14.01,2013-08-22 07:15:00,
2013-08-22 03:16:00,70.7,69.8,30.06,SW,234,13.0,15.0,97,0.00,,,0.00,0.00,VWS V14.01,2013-08-22 07:16:00,
2013-08-22 03:21:00,70.7,69.8,30.06,WSW,238,13.0,16.0,97,0.00,,,0.00,0.00,VWS V14.01,2013-08-22 07:21:00,
2013-08-22 03:26:00,70.6,69.7,30.05,SW,233,13.0,16.0,97,0.00,,,0.00,0.00,VWS V14.01,2013-08-22 07:26:00,
2013-08-22 03:30:00,70.4,69.5,30.06,SW,234,13.0,15.0,97,0.00,,,0.00,0.00,VWS V14.01,2013-08-22 07:30:00,
2013-08-22 03:32:00,70.7,69.8,30.05,SW,235,12.0,13.0,97,0.00,,,0.00,0.00,VWS V14.01,2013-08-22 07:32:00,
2013-08-22 03:37:00,70.8,69.9,30.05,SW,235,12.0,14.0,97,0.00,,,0.00,0.00,VWS V14.01,2013-08-22 07:37:00,
2013-08-22 03:42:00,70.7,69.8,30.05,SW,233,12.0,14.0,97,0.00,,,0.00,0.00,VWS V14.01,2013-08-22 07:42:00,
2013-08-22 03:45:00,70.4,69.5,30.06,SW,233,12.0,15.0,97,0.00,,,0.00,0.00,VWS V14.01,2013-08-22 07:45:00,
2013-08-22 03:47:00,70.6,69.7,30.04,WSW,238,12.0,13.0,97,0.00,,,0.00,0.00,VWS V14.01,2013-08-22 07:47:00,
2013-08-22 03:52:00,70.6,69.7,30.04,SW,235,11.0,13.0,97,0.00,,,0.00,0.00,VWS V14.01,2013-08-22 07:52:00,
2013-08-22 03:57:00,70.6,69.7,30.04,WSW,239,11.0,14.0,97,0.00,,,0.00,0.00,VWS V14.01,2013-08-22 07:57:00,
2013-08-22 04:00:00,70.5,69.6,30.05,SW,234,12.0,16.0,97,0.00,,,0.00,0.00,VWS V14.01,2013-08-22 08:00:00,
2013-08-22 04:02:00,70.6,69.7,30.05,SW,234,12.0,13.0,97,0.00,,,0.00,0.00,VWS V14.01,2013-08-22 08:02:00,
2013-08-22 04:07:00,70.7,69.8,30.05,SW,232,11.0,14.0,97,0.00,,,0.00,0.00,VWS V14.01,2013-08-22 08:07:00,
2013-08-22 04:12:00,70.7,69.8,30.05,SW,234,13.0,14.0,97,0.00,,,0.00,0.00,VWS V14.01,2013-08-22 08:12:00,
2013-08-22 04:15:00,70.7,69.8,30.06,WSW,242,12.0,16.0,97,0.00,,,0.00,0.00,VWS V14.01,2013-08-22 08:15:00,
2013-08-22 04:17:00,70.6,69.7,30.04,WSW,242,11.0,13.0,97,0.00,,,0.00,0.00,VWS V14.01,2013-08-22 08:17:00,
2013-08-22 04:22:00,70.7,69.8,30.04,WSW,240,11.0,14.0,97,0.00,,,0.00,0.00,VWS V14.01,2013-08-22 08:22:00,
2013-08-22 04:27:00,70.6,69.7,30.04,SW,231,13.0,14.0,97,0.00,,,0.00,0.00,VWS V14.01,2013-08-22 08:27:00,
2013-08-22 04:30:00,70.7,69.8,30.05,WSW,238,13.0,16.0,97,0.00,,,0.00,0.00,VWS V14.01,2013-08-22 08:30:00,
2013-08-22 04:32:00,70.6,69.7,30.04,WSW,239,11.0,13.0,97,0.00,,,0.00,0.00,VWS V14.01,2013-08-22 08:32:00,
2013-08-22 04:37:00,70.6,69.7,30.04,SW,234,12.0,13.0,97,0.00,,,0.00,0.00,VWS V14.01,2013-08-22 08:37:00,
2013-08-22 04:42:00,70.5,69.6,30.04,SW,225,12.0,14.0,97,0.00,,,0.00,0.00,VWS V14.01,2013-08-22 08:42:00,
2013-08-22 04:45:00,70.6,69.7,30.05,SW,232,13.0,14.0,97,0.00,,,0.00,0.00,VWS V14.01,2013-08-22 08:45:00,
2013-08-22 04:47:00,70.5,69.6,30.04,SW,221,13.0,13.0,97,0.00,,,0.00,0.00,VWS V14.01,2013-08-22 08:47:00,
2013-08-22 04:52:00,70.5,69.6,30.03,SW,225,12.0,15.0,97,0.00,,,0.00,0.00,VWS V14.01,2013-08-22 08:52:00,
2013-08-22 04:57:00,70.5,69.6,30.03,SW,218,13.0,15.0,97,0.00,,,0.00,0.00,VWS V14.01,2013-08-22 08:57:00,
2013-08-22 05:00:00,70.7,69.8,30.05,SW,229,12.0,14.0,97,0.00,,,0.00,0.00,VWS V14.01,2013-08-22 09:00:00,
2013-08-22 05:02:00,70.5,69.6,30.03,SW,232,12.0,13.0,97,0.00,,,0.00,0.00,VWS V14.01,2013-08-22 09:02:00,
2013-08-22 05:07:00,70.5,69.6,30.03,SW,224,13.0,13.0,97,0.00,,,0.00,0.00,VWS V14.01,2013-08-22 09:07:00,
2013-08-22 05:12:00,70.5,69.6,30.03,SW,226,12.0,14.0,97,0.00,,,0.00,0.00,VWS V14.01,2013-08-22 09:12:00,
2013-08-22 05:15:00,70.6,69.7,30.04,SW,233,13.0,14.0,97,0.00,,,0.00,0.00,VWS V14.01,2013-08-22 09:15:00,
2013-08-22 05:17:00,70.4,69.5,30.03,SW,225,13.0,15.0,97,0.00,,,0.00,0.00,VWS V14.01,2013-08-22 09:17:00,
2013-08-22 05:22:00,70.4,69.5,30.03,SW,224,13.0,15.0,97,0.00,,,0.00,0.00,VWS V14.01,2013-08-22 09:22:00,
2013-08-22 05:27:00,70.4,69.5,30.03,SW,229,13.0,15.0,97,0.00,,,0.00,0.00,VWS V14.01,2013-08-22 09:27:00,
2013-08-22 05:30:00,70.6,69.7,30.04,SW,228,12.0,14.0,97,0.00,,,0.00,0.00,VWS V14.01,2013-08-22 09:30:00,
2013-08-22 05:32:00,70.4,69.5,30.03,SW,221,13.0,15.0,97,0.00,,,0.00,0.00,VWS V14.01,2013-08-22 09:32:00,
2013-08-22 05:37:00,70.5,69.6,30.03,SW,229,15.0,16.0,97,0.00,,,0.00,0.00,VWS V14.01,2013-08-22 09:37:00,
2013-08-22 05:42:00,70.4,69.5,30.02,SW,227,15.0,16.0,97,0.00,,,0.00,0.00,VWS V14.01,2013-08-22 09:42:00,
2013-08-22 05:45:00,70.5,69.6,30.04,SW,219,11.0,14.0,97,0.00,,,0.00,0.00,VWS V14.01,2013-08-22 09:45:00,
2013-08-22 05:47:00,70.5,69.6,30.02,SW,227,12.0,14.0,97,0.00,,,0.00,0.00,VWS V14.01,2013-08-22 09:47:00,
2013-08-22 05:52:00,70.6,69.7,30.02,SW,226,11.0,14.0,97,0.00,,,0.00,0.00,VWS V14.01,2013-08-22 09:52:00,
2013-08-22 05:57:00,70.5,69.6,30.02,SW,231,11.0,14.0,97,0.00,,,0.00,0.00,VWS V14.01,2013-08-22 09:57:00,
2013-08-22 06:00:00,70.5,69.6,30.03,SW,228,12.0,15.0,97,0.00,,,0.00,0.00,VWS V14.01,2013-08-22 10:00:00,
2013-08-22 06:02:00,70.4,69.5,30.02,SW,223,13.0,14.0,97,0.00,,,0.00,0.00,VWS V14.01,2013-08-22 10:02:00,
2013-08-22 06:07:00,70.3,69.0,30.03,SW,230,14.0,-999.0,97,-99.99,,,0.00,5,weatherlink.com 1.10,2013-08-22 10:07:00,
2013-08-22 06:12:00,70.2,69.3,30.03,SW,218,14.0,16.0,97,0.00,,,0.00,7.00,VWS V14.01,2013-08-22 10:12:00,
2013-08-22 06:15:00,70.4,69.5,30.03,SW,221,14.0,15.0,97,0.00,,,0.00,0.00,VWS V14.01,2013-08-22 10:15:00,
2013-08-22 06:17:00,70.2,69.3,30.02,SW,223,13.0,15.0,97,0.00,,,0.00,11.00,VWS V14.01,2013-08-22 10:17:00,
2013-08-22 06:22:00,70.1,69.2,30.02,SW,219,14.0,16.0,97,0.00,,,0.00,14.00,VWS V14.01,2013-08-22 10:22:00,
2013-08-22 06:27:00,70.1,69.2,30.02,SW,219,12.0,16.0,97,0.00,,,0.00,19.00,VWS V14.01,2013-08-22 10:27:00,
2013-08-22 06:30:00,70.4,69.5,30.03,SW,227,13.0,15.0,97,0.00,,,0.00,0.00,VWS V14.01,2013-08-22 10:30:00,
2013-08-22 06:32:00,70.0,69.1,30.02,SW,225,13.0,14.0,97,0.00,,,0.00,23.00,VWS V14.01,2013-08-22 10:32:00,
2013-08-22 06:37:00,69.9,69.0,30.02,SW,219,13.0,14.0,97,0.00,,,0.00,28.00,VWS V14.01,2013-08-22 10:37:00,
2013-08-22 06:42:00,69.8,68.9,30.03,SW,219,14.0,15.0,97,0.00,,,0.00,28.00,VWS V14.01,2013-08-22 10:42:00,
2013-08-22 06:45:00,70.5,69.6,30.02,SW,225,14.0,16.0,97,0.00,,,0.00,0.00,VWS V14.01,2013-08-22 10:45:00,
2013-08-22 06:47:00,69.7,68.8,30.03,SW,224,10.0,13.0,97,0.00,,,0.00,35.00,VWS V14.01,2013-08-22 10:47:00,
2013-08-22 07:00:00,70.5,69.6,30.02,SW,218,14.0,15.0,97,0.00,,,0.00,0.00,VWS V14.01,2013-08-22 11:00:00,
2013-08-22 07:15:00,70.2,69.3,30.02,SW,217,13.0,16.0,97,0.00,,,0.00,11.00,VWS V14.01,2013-08-22 11:15:00,
2013-08-22 07:45:00,69.8,68.9,30.03,SW,227,13.0,15.0,97,0.00,,,0.00,30.00,VWS V14.01,2013-08-22 11:45:00,
2013-08-22 08:15:00,69.8,69.2,30.02,SSW,213,12.0,18.0,98,0.00,,,0.00,53.00,VWS V14.01,2013-08-22 12:15:00,
2013-08-22 08:27:00,70.0,69.4,30.02,SW,227,12.0,16.0,98,0.00,,,0.00,139.00,VWS V14.01,2013-08-22 12:27:00,
2013-08-22 08:30:00,69.8,69.2,30.02,SW,218,14.0,17.0,98,0.00,,,0.00,88.00,VWS V14.01,2013-08-22 12:30:00,
2013-08-22 08:32:00,70.2,69.6,30.02,SW,225,13.0,13.0,98,0.00,,,0.00,107.00,VWS V14.01,2013-08-22 12:32:00,
2013-08-22 08:37:00,70.2,69.6,30.01,SW,227,12.0,14.0,98,0.00,,,0.00,91.00,VWS V14.01,2013-08-22 12:37:00,
2013-08-22 08:42:00,70.3,69.7,30.01,SW,229,11.0,15.0,98,0.00,,,0.00,100.00,VWS V14.01,2013-08-22 12:42:00,
2013-08-22 08:45:00,69.9,69.3,30.02,SSW,205,13.0,18.0,98,0.00,,,0.00,93.00,VWS V14.01,2013-08-22 12:45:00,
2013-08-22 08:47:00,70.3,69.4,30.01,SW,223,14.0,14.0,97,0.00,,,0.00,127.00,VWS V14.01,2013-08-22 12:47:00,
2013-08-22 08:52:00,70.4,69.8,30.01,SW,215,12.0,14.0,98,0.00,,,0.00,200.00,VWS V14.01,2013-08-22 12:52:00,
2013-08-22 08:57:00,70.3,69.4,30.01,SW,218,14.0,16.0,97,0.00,,,0.00,207.00,VWS V14.01,2013-08-22 12:57:00,
2013-08-22 09:00:00,70.3,69.4,30.01,SSW,202,16.0,18.0,97,0.00,,,0.00,253.00,VWS V14.01,2013-08-22 13:00:00,
2013-08-22 09:05:00,70.0,69.1,30.02,SW,215,16.0,20.0,97,0.00,,,0.00,336.00,VWS V14.01,2013-08-22 13:05:00,
2013-08-22 09:10:00,70.1,69.2,30.02,SSW,211,17.0,20.0,97,0.00,,,0.00,401.00,VWS V14.01,2013-08-22 13:10:00,
2013-08-22 09:15:00,70.1,69.2,30.02,SSW,206,16.0,20.0,97,0.00,,,0.00,343.00,VWS V14.01,2013-08-22 13:15:00,
2013-08-22 09:20:00,70.1,69.2,30.02,SW,219,16.0,19.0,97,0.00,,,0.00,352.00,VWS V14.01,2013-08-22 13:20:00,
2013-08-22 09:25:00,70.3,69.4,30.02,SSW,213,14.0,19.0,97,0.00,,,0.00,519.00,VWS V14.01,2013-08-22 13:25:00,
2013-08-22 09:30:00,70.4,69.5,30.02,SW,227,12.0,19.0,97,0.00,,,0.00,236.00,VWS V14.01,2013-08-22 13:30:00,
2013-08-22 09:35:00,70.5,69.6,30.02,SW,219,13.0,16.0,97,0.00,,,0.00,323.00,VWS V14.01,2013-08-22 13:35:00,
2013-08-22 09:40:00,70.6,69.7,30.02,SW,219,14.0,17.0,97,0.00,,,0.00,429.00,VWS V14.01,2013-08-22 13:40:00,
2013-08-22 09:45:00,70.8,69.6,30.02,SW,224,16.0,17.0,96,0.00,,,0.00,446.00,VWS V14.01,2013-08-22 13:45:00,
2013-08-22 09:50:00,70.9,69.7,30.02,SW,221,15.0,16.0,96,0.00,,,0.00,589.00,VWS V14.01,2013-08-22 13:50:00,
2013-08-22 09:55:00,71.1,69.9,30.02,SW,224,16.0,17.0,96,0.00,,,0.00,635.00,VWS V14.01,2013-08-22 13:55:00,
2013-08-22 10:00:00,71.3,70.1,30.01,SW,223,12.0,17.0,96,0.00,,,0.00,714.00,VWS V14.01,2013-08-22 14:00:00,
2013-08-22 10:05:00,71.6,70.4,30.01,SW,221,15.0,17.0,96,0.00,,,0.00,689.00,VWS V14.01,2013-08-22 14:05:00,
2013-08-22 10:10:00,71.7,70.2,30.01,SSW,213,15.0,17.0,95,0.00,,,0.00,457.00,VWS V14.01,2013-08-22 14:10:00,
2013-08-22 10:15:00,70.1,69.2,30.02,SSW,211,17.0,20.0,97,0.00,,,0.00,346.00,VWS V14.01,2013-08-22 14:15:00,
2013-08-22 10:16:00,71.8,70.3,30.01,SW,218,17.0,17.0,95,0.00,,,0.00,427.00,VWS V14.01,2013-08-22 14:16:00,
2013-08-22 10:21:00,71.8,70.3,30.02,SW,219,16.0,19.0,95,0.00,,,0.00,381.00,VWS V14.01,2013-08-22 14:21:00,
2013-08-22 10:26:00,71.7,70.2,30.01,SW,218,14.0,19.0,95,0.00,,,0.00,448.00,VWS V14.01,2013-08-22 14:26:00,
2013-08-22 10:30:00,70.4,69.5,30.02,SW,226,12.0,19.0,97,0.00,,,0.00,258.00,VWS V14.01,2013-08-22 14:30:00,
2013-08-22 10:31:00,71.8,70.3,30.01,SW,220,15.0,19.0,95,0.00,,,0.00,566.00,VWS V14.01,2013-08-22 14:31:00,
2013-08-22 10:36:00,72.0,70.2,30.00,SW,226,12.0,16.0,94,0.00,,,0.00,663.00,VWS V14.01,2013-08-22 14:36:00,
2013-08-22 10:41:00,72.2,70.4,30.01,SSW,208,14.0,16.0,94,0.00,,,0.00,617.00,VWS V14.01,2013-08-22 14:41:00,
2013-08-22 10:45:00,70.8,69.6,30.02,SW,227,16.0,17.0,96,0.00,,,0.00,446.00,VWS V14.01,2013-08-22 14:45:00,
2013-08-22 10:46:00,72.2,70.4,30.00,SW,220,12.0,16.0,94,0.00,,,0.00,401.00,VWS V14.01,2013-08-22 14:46:00,
2013-08-22 10:55:00,72.2,70.4,30.00,SW,215,14.0,16.0,94,0.00,,,0.00,438.00,VWS V14.01,2013-08-22 14:55:00,
2013-08-22 11:00:00,72.2,70.4,30.00,SW,221,13.0,16.0,94,0.00,,,0.00,454.00,VWS V14.01,2013-08-22 15:00:00,
2013-08-22 11:05:00,72.1,70.0,30.00,SSW,210,16.0,20.0,93,0.00,,,0.00,418.00,VWS V14.01,2013-08-22 15:05:00,
2013-08-22 11:10:00,72.0,70.2,30.00,SW,219,15.0,20.0,94,0.00,,,0.00,332.00,VWS V14.01,2013-08-22 15:10:00,
2013-08-22 11:15:00,71.8,70.0,30.00,SW,221,16.0,20.0,94,0.00,,,0.00,320.00,VWS V14.01,2013-08-22 15:15:00,
2013-08-22 11:20:00,71.8,70.0,30.00,SSW,211,17.0,18.0,94,0.00,,,0.00,345.00,VWS V14.01,2013-08-22 15:20:00,
2013-08-22 11:25:00,71.7,69.9,30.01,SW,220,15.0,18.0,94,0.00,,,0.00,346.00,VWS V14.01,2013-08-22 15:25:00,
2013-08-22 11:30:00,71.7,69.9,30.00,SW,225,17.0,19.0,94,0.00,,,0.00,320.00,VWS V14.01,2013-08-22 15:30:00,
2013-08-22 11:35:00,71.7,69.9,30.00,SW,228,17.0,18.0,94,0.00,,,0.00,343.00,VWS V14.01,2013-08-22 15:35:00,
2013-08-22 11:40:00,71.9,70.1,30.00,SW,220,15.0,18.0,94,0.00,,,0.00,399.00,VWS V14.01,2013-08-22 15:40:00,
2013-08-22 11:45:00,72.1,70.3,30.00,SW,219,17.0,18.0,94,0.00,,,0.00,476.00,VWS V14.01,2013-08-22 15:45:00,
2013-08-22 11:50:00,72.3,70.5,30.00,SW,225,14.0,17.0,94,0.00,,,0.00,490.00,VWS V14.01,2013-08-22 15:50:00,
2013-08-22 11:55:00,72.3,70.2,29.99,SW,221,18.0,18.0,93,0.00,,,0.00,494.00,VWS V14.01,2013-08-22 15:55:00,
2013-08-22 12:00:00,72.2,70.1,30.00,SSW,209,19.0,21.0,93,0.00,,,0.00,468.00,VWS V14.01,2013-08-22 16:00:00,
2013-08-22 12:05:00,72.0,69.9,30.00,SSW,210,18.0,23.0,93,0.00,,,0.00,406.00,VWS V14.01,2013-08-22 16:05:00,
2013-08-22 12:10:00,71.9,69.8,30.00,SW,217,19.0,23.0,93,0.00,,,0.00,394.00,VWS V14.01,2013-08-22 16:10:00,
2013-08-22 12:15:00,71.9,69.8,30.00,SW,221,20.0,23.0,93,0.00,,,0.00,394.00,VWS V14.01,2013-08-22 16:15:00,
2013-08-22 12:20:00,71.9,69.8,29.99,SW,219,18.0,20.0,93,0.00,,,0.00,390.00,VWS V14.01,2013-08-22 16:20:00,
2013-08-22 12:25:00,71.9,69.8,29.99,SW,219,16.0,22.0,93,0.00,,,0.00,357.00,VWS V14.01,2013-08-22 16:25:00,
2013-08-22 12:30:00,71.8,69.7,29.99,SSW,209,17.0,22.0,93,0.00,,,0.00,364.00,VWS V14.01,2013-08-22 16:30:00,
2013-08-22 12:35:00,71.8,69.7,29.99,SW,219,16.0,22.0,93,0.00,,,0.00,355.00,VWS V14.01,2013-08-22 16:35:00,
2013-08-22 12:40:00,71.9,69.8,29.99,SW,234,17.0,22.0,93,0.00,,,0.00,364.00,VWS V14.01,2013-08-22 16:40:00,
2013-08-22 12:45:00,71.9,69.8,29.98,SW,232,18.0,22.0,93,0.00,,,0.00,338.00,VWS V14.01,2013-08-22 16:45:00,
2013-08-22 12:51:00,71.9,69.8,29.98,SSW,205,15.0,20.0,93,0.00,,,0.00,304.00,VWS V14.01,2013-08-22 16:51:00,
2013-08-22 12:56:00,71.9,69.8,29.98,SW,215,18.0,20.0,93,0.00,,,0.00,267.00,VWS V14.01,2013-08-22 16:56:00,
2013-08-22 13:00:00,72.2,70.1,30.00,SSW,213,17.0,21.0,93,0.00,,,0.00,439.00,VWS V14.01,2013-08-22 17:00:00,
2013-08-22 13:01:00,71.9,69.8,29.98,SW,223,18.0,22.0,93,0.00,,,0.00,248.00,VWS V14.01,2013-08-22 17:01:00,
2013-08-22 13:06:00,71.9,69.8,29.99,SW,224,17.0,21.0,93,0.00,,,0.00,246.00,VWS V14.01,2013-08-22 17:06:00,
2013-08-22 13:11:00,71.9,69.8,29.99,SW,224,16.0,21.0,93,0.00,,,0.00,243.00,VWS V14.01,2013-08-22 17:11:00,
2013-08-22 13:15:00,71.9,69.8,30.00,SW,217,19.0,23.0,93,0.00,,,0.00,399.00,VWS V14.01,2013-08-22 17:15:00,
2013-08-22 13:16:00,71.9,69.8,29.98,SW,220,17.0,21.0,93,0.00,,,0.00,234.00,VWS V14.01,2013-08-22 17:16:00,
2013-08-22 13:21:00,71.7,69.6,29.99,SW,214,18.0,21.0,93,0.00,,,0.00,230.00,VWS V14.01,2013-08-22 17:21:00,
2013-08-22 13:26:00,71.6,69.5,29.98,SW,219,19.0,22.0,93,0.00,,,0.00,214.00,VWS V14.01,2013-08-22 17:26:00,
2013-08-22 13:30:00,71.8,69.7,29.99,SW,225,19.0,22.0,93,0.00,,,0.00,364.00,VWS V14.01,2013-08-22 17:30:00,
2013-08-22 13:31:00,71.6,69.5,29.98,SW,219,18.0,22.0,93,0.00,,,0.00,211.00,VWS V14.01,2013-08-22 17:31:00,
2013-08-22 13:36:00,71.5,69.4,29.98,SW,222,20.0,23.0,93,0.00,,,0.00,229.00,VWS V14.01,2013-08-22 17:36:00,
2013-08-22 13:41:00,71.7,69.6,29.98,SW,229,20.0,24.0,93,0.00,,,0.00,220.00,VWS V14.01,2013-08-22 17:41:00,
2013-08-22 13:45:00,71.9,69.8,29.98,SW,218,19.0,22.0,93,0.00,,,0.00,338.00,VWS V14.01,2013-08-22 17:45:00,
2013-08-22 13:46:00,71.9,69.8,29.97,SW,225,18.0,24.0,93,0.00,,,0.00,207.00,VWS V14.01,2013-08-22 17:46:00,
2013-08-22 13:51:00,72.1,70.0,29.97,SW,219,17.0,20.0,93,0.00,,,0.00,200.00,VWS V14.01,2013-08-22 17:51:00,
2013-08-22 13:56:00,72.2,70.1,29.97,SW,216,17.0,20.0,93,0.00,,,0.00,190.00,VWS V14.01,2013-08-22 17:56:00,
2013-08-22 14:00:00,71.9,69.8,29.98,SW,217,16.0,22.0,93,0.00,,,0.00,248.00,VWS V14.01,2013-08-22 18:00:00,
2013-08-22 14:01:00,72.3,70.2,29.97,SW,227,15.0,20.0,93,0.00,,,0.00,181.00,VWS V14.01,2013-08-22 18:01:00,
2013-08-22 14:06:00,72.4,70.3,29.96,SW,219,13.0,16.0,93,0.00,,,0.00,185.00,VWS V14.01,2013-08-22 18:06:00,
2013-08-22 14:11:00,72.5,70.4,29.96,SSW,213,12.0,16.0,93,0.00,,,0.00,204.00,VWS V14.01,2013-08-22 18:11:00,
2013-08-22 14:15:00,71.8,69.7,29.98,SW,223,14.0,21.0,93,0.00,,,0.00,234.00,VWS V14.01,2013-08-22 18:15:00,
2013-08-22 14:16:00,72.5,70.1,29.95,SW,220,16.0,16.0,92,0.00,,,0.00,211.00,VWS V14.01,2013-08-22 18:16:00,
2013-08-22 14:21:00,72.5,70.4,29.95,SSW,213,13.0,18.0,93,0.00,,,0.00,211.00,VWS V14.01,2013-08-22 18:21:00,
2013-08-22 14:26:00,72.4,70.3,29.95,SSW,211,15.0,20.0,93,0.00,,,0.00,220.00,VWS V14.01,2013-08-22 18:26:00,
2013-08-22 14:30:00,71.6,69.5,29.98,SW,223,19.0,22.0,93,0.00,,,0.00,213.00,VWS V14.01,2013-08-22 18:30:00,
2013-08-22 14:31:00,72.1,70.0,29.95,SSW,210,22.0,23.0,93,0.00,,,0.00,243.00,VWS V14.01,2013-08-22 18:31:00,
2013-08-22 14:36:00,71.8,69.7,29.95,SSW,200,20.0,24.0,93,0.00,,,0.00,265.00,VWS V14.01,2013-08-22 18:36:00,
2013-08-22 14:41:00,71.6,69.8,29.95,SW,218,19.0,24.0,94,0.00,,,0.00,260.00,VWS V14.01,2013-08-22 18:41:00,
2013-08-22 14:45:00,71.9,69.8,29.97,SW,223,17.0,24.0,93,0.00,,,0.00,206.00,VWS V14.01,2013-08-22 18:45:00,
2013-08-22 14:46:00,71.5,69.4,29.95,SW,220,20.0,24.0,93,0.00,,,0.00,243.00,VWS V14.01,2013-08-22 18:46:00,
2013-08-22 14:51:00,71.5,69.7,29.94,SSW,207,19.0,22.0,94,0.00,,,0.00,229.00,VWS V14.01,2013-08-22 18:51:00,
2013-08-22 14:56:00,71.5,69.4,29.94,SW,215,21.0,22.0,93,0.00,,,0.00,246.00,VWS V14.01,2013-08-22 18:56:00,
2013-08-22 15:00:00,72.4,70.3,29.97,SW,223,15.0,20.0,93,0.00,,,0.00,181.00,VWS V14.01,2013-08-22 19:00:00,
2013-08-22 15:01:00,71.6,69.8,29.94,SW,215,14.0,22.0,94,0.00,,,0.00,281.00,VWS V14.01,2013-08-22 19:01:00,
2013-08-22 15:06:00,71.7,69.6,29.94,SSW,209,17.0,18.0,93,0.00,,,0.00,313.00,VWS V14.01,2013-08-22 19:06:00,
2013-08-22 15:11:00,71.8,69.3,29.94,SW,221,17.0,18.0,92,0.00,,,0.00,297.00,VWS V14.01,2013-08-22 19:11:00,
2013-08-22 15:15:00,72.5,70.1,29.95,SW,221,16.0,16.0,92,0.00,,,0.00,211.00,VWS V14.01,2013-08-22 19:15:00,
2013-08-22 15:16:00,71.9,69.8,29.94,SSW,213,17.0,19.0,93,0.00,,,0.00,279.00,VWS V14.01,2013-08-22 19:16:00,
2013-08-22 15:21:00,71.7,69.6,29.94,SSW,209,16.0,19.0,93,0.00,,,0.00,283.00,VWS V14.01,2013-08-22 19:21:00,
2013-08-22 15:26:00,71.7,69.6,29.94,SSW,213,15.0,19.0,93,0.00,,,0.00,292.00,VWS V14.01,2013-08-22 19:26:00,
2013-08-22 15:30:00,72.1,70.0,29.95,SW,215,21.0,23.0,93,0.00,,,0.00,243.00,VWS V14.01,2013-08-22 19:30:00,
2013-08-22 15:31:00,71.7,69.3,29.94,SW,220,16.0,19.0,92,0.00,,,0.00,320.00,VWS V14.01,2013-08-22 19:31:00,
2013-08-22 15:36:00,71.9,69.8,29.94,SW,218,18.0,18.0,93,0.00,,,0.00,309.00,VWS V14.01,2013-08-22 19:36:00,
2013-08-22 15:41:00,72.0,69.6,29.93,SSW,211,16.0,18.0,92,0.00,,,0.00,311.00,VWS V14.01,2013-08-22 19:41:00,
2013-08-22 15:45:00,71.4,69.3,29.95,SSW,207,18.0,24.0,93,0.00,,,0.00,243.00,VWS V14.01,2013-08-22 19:45:00,
2013-08-22 15:46:00,72.0,69.6,29.93,SW,216,15.0,18.0,92,0.00,,,0.00,264.00,VWS V14.01,2013-08-22 19:46:00,
2013-08-22 15:51:00,72.0,69.6,29.93,SW,219,14.0,16.0,92,0.00,,,0.00,257.00,VWS V14.01,2013-08-22 19:51:00,
2013-08-22 15:56:00,71.9,69.4,29.93,SW,214,15.0,19.0,92,0.00,,,0.00,278.00,VWS V14.01,2013-08-22 19:56:00,
2013-08-22 16:00:00,71.6,69.8,29.94,SSW,205,14.0,22.0,94,0.00,,,0.00,281.00,VWS V14.01,2013-08-22 20:00:00,
2013-08-22 16:01:00,71.9,69.4,29.93,SSW,207,16.0,19.0,92,0.00,,,0.00,373.00,VWS V14.01,2013-08-22 20:01:00,
2013-08-22 16:06:00,71.7,69.3,29.93,SSW,205,20.0,21.0,92,0.00,,,0.00,631.00,VWS V14.01,2013-08-22 20:06:00,
2013-08-22 16:11:00,71.8,69.3,29.93,SW,217,19.0,21.0,92,0.00,,,0.00,550.00,VWS V14.01,2013-08-22 20:11:00,
2013-08-22 16:15:00,71.9,69.8,29.94,SW,215,17.0,19.0,93,0.00,,,0.00,272.00,VWS V14.01,2013-08-22 20:15:00,
2013-08-22 16:16:00,71.9,69.4,29.92,SSW,205,18.0,23.0,92,0.00,,,0.00,497.00,VWS V14.01,2013-08-22 20:16:00,
2013-08-22 16:21:00,71.7,68.9,29.92,SSW,202,18.0,22.0,91,0.00,,,0.00,364.00,VWS V14.01,2013-08-22 20:21:00,
2013-08-22 16:26:00,71.8,69.0,29.92,SSW,206,20.0,24.0,91,0.00,,,0.00,420.00,VWS V14.01,2013-08-22 20:26:00,
2013-08-22 16:30:00,71.8,69.4,29.94,SSW,213,16.0,19.0,92,0.00,,,0.00,325.00,VWS V14.01,2013-08-22 20:30:00,
2013-08-22 16:31:00,71.8,68.7,29.91,SSW,198,23.0,24.0,90,0.00,,,0.00,195.00,VWS V14.01,2013-08-22 20:31:00,
2013-08-22 16:36:00,71.7,68.6,29.91,SSW,205,18.0,23.0,90,0.00,,,0.00,200.00,VWS V14.01,2013-08-22 20:36:00,
2013-08-22 16:41:00,71.4,68.6,29.91,SSW,201,21.0,23.0,91,0.00,,,0.00,188.00,VWS V14.01,2013-08-22 20:41:00,
2013-08-22 16:45:00,72.0,69.6,29.93,SW,219,16.0,18.0,92,0.00,,,0.00,264.00,VWS V14.01,2013-08-22 20:45:00,
2013-08-22 16:46:00,71.2,68.8,29.90,SSW,192,19.0,23.0,92,0.00,,,0.00,165.00,VWS V14.01,2013-08-22 20:46:00,
2013-08-22 16:51:00,70.9,68.5,29.90,SSW,194,20.0,21.0,92,0.00,,,0.00,141.00,VWS V14.01,2013-08-22 20:51:00,
2013-08-22 16:56:00,70.7,68.6,29.90,South,190,16.0,21.0,93,0.00,,,0.00,127.00,VWS V14.01,2013-08-22 20:56:00,
2013-08-22 17:00:00,71.9,69.4,29.93,SW,218,14.0,19.0,92,0.00,,,0.00,373.00,VWS V14.01,2013-08-22 21:00:00,
2013-08-22 17:01:00,70.6,68.8,29.90,SSW,192,20.0,21.0,94,0.00,,,0.00,123.00,VWS V14.01,2013-08-22 21:01:00,
2013-08-22 17:06:00,70.6,68.8,29.90,SSW,192,20.0,22.0,94,0.00,,,0.00,120.00,VWS V14.01,2013-08-22 21:06:00,
2013-08-22 17:11:00,70.8,69.0,29.90,SSW,192,15.0,22.0,94,0.00,,,0.00,120.00,VWS V14.01,2013-08-22 21:11:00,
2013-08-22 17:15:00,71.9,69.4,29.92,SSW,207,18.0,23.0,92,0.00,,,0.00,497.00,VWS V14.01,2013-08-22 21:15:00,
2013-08-22 17:16:00,70.9,69.4,29.90,South,185,16.0,22.0,95,0.00,,,0.00,97.00,VWS V14.01,2013-08-22 21:16:00,
2013-08-22 17:21:00,70.9,69.4,29.90,SSW,194,21.0,21.0,95,0.00,,,0.00,84.00,VWS V14.01,2013-08-22 21:21:00,
2013-08-22 17:26:00,70.8,69.3,29.90,South,190,18.0,22.0,95,0.00,,,0.00,88.00,VWS V14.01,2013-08-22 21:26:00,
2013-08-22 17:30:00,71.8,68.7,29.91,SSW,200,20.0,24.0,90,0.00,,,0.00,195.00,VWS V14.01,2013-08-22 21:30:00,
2013-08-22 17:31:00,70.8,69.6,29.89,SSW,193,17.0,22.0,96,0.00,,,0.00,67.00,VWS V14.01,2013-08-22 21:31:00,
2013-08-22 17:36:00,70.9,69.7,29.89,SSW,196,18.0,21.0,96,0.00,,,0.00,70.00,VWS V14.01,2013-08-22 21:36:00,
2013-08-22 17:41:00,70.8,69.6,29.89,SSW,196,18.0,23.0,96,0.00,,,0.00,79.00,VWS V14.01,2013-08-22 21:41:00,
2013-08-22 17:45:00,71.2,68.8,29.90,SSW,196,18.0,23.0,92,0.00,,,0.00,165.00,VWS V14.01,2013-08-22 21:45:00,
2013-08-22 17:46:00,70.9,69.7,29.89,South,190,17.0,23.0,96,0.00,,,0.00,121.00,VWS V14.01,2013-08-22 21:46:00,
2013-08-22 17:51:00,71.0,69.8,29.89,SSW,194,19.0,21.0,96,0.00,,,0.00,207.00,VWS V14.01,2013-08-22 21:51:00,
2013-08-22 17:56:00,71.1,70.2,29.89,South,188,18.0,23.0,97,0.00,,,0.00,230.00,VWS V14.01,2013-08-22 21:56:00,
2013-08-22 18:00:00,70.6,68.8,29.90,SSW,196,18.0,21.0,94,0.00,,,0.00,121.00,VWS V14.01,2013-08-22 22:00:00,
2013-08-22 18:01:00,71.0,70.1,29.89,South,182,22.0,23.0,97,0.00,,,0.00,192.00,VWS V14.01,2013-08-22 22:01:00,
2013-08-22 18:06:00,70.9,70.0,29.89,SSW,196,19.0,22.0,97,0.00,,,0.00,90.00,VWS V14.01,2013-08-22 22:06:00,
2013-08-22 18:11:00,70.9,70.0,29.89,SSW,202,16.0,22.0,97,0.00,,,0.00,84.00,VWS V14.01,2013-08-22 22:11:00,
2013-08-22 18:15:00,70.9,69.4,29.90,South,185,16.0,22.0,95,0.00,,,0.00,97.00,VWS V14.01,2013-08-22 22:15:00,
2013-08-22 18:16:00,70.9,70.0,29.89,SSW,200,17.0,22.0,97,0.00,,,0.00,49.00,VWS V14.01,2013-08-22 22:16:00,
2013-08-22 18:21:00,71.0,70.1,29.89,SW,221,14.0,17.0,97,0.00,,,0.00,56.00,VWS V14.01,2013-08-22 22:21:00,
2013-08-22 18:26:00,71.0,70.1,29.89,SW,221,18.0,19.0,97,0.00,,,0.00,26.00,VWS V14.01,2013-08-22 22:26:00,
2013-08-22 18:30:00,70.8,69.6,29.89,SSW,196,17.0,22.0,96,0.00,,,0.00,67.00,VWS V14.01,2013-08-22 22:30:00,
2013-08-22 18:31:00,71.0,70.1,29.89,SW,229,16.0,19.0,97,0.00,,,0.00,25.00,VWS V14.01,2013-08-22 22:31:00,
2013-08-22 18:36:00,70.9,70.0,29.90,SW,227,14.0,16.0,97,0.00,,,0.00,16.00,VWS V14.01,2013-08-22 22:36:00,
2013-08-22 18:41:00,70.9,70.0,29.90,WSW,238,16.0,17.0,97,0.00,,,0.00,11.00,VWS V14.01,2013-08-22 22:41:00,
2013-08-22 18:45:00,71.0,69.8,29.89,South,190,16.0,23.0,96,0.00,,,0.00,121.00,VWS V14.01,2013-08-22 22:45:00,
2013-08-22 18:46:00,70.9,70.0,29.90,SW,223,17.0,17.0,97,0.00,,,0.00,11.00,VWS V14.01,2013-08-22 22:46:00,
2013-08-22 18:51:00,71.0,70.1,29.90,SW,225,14.0,17.0,97,0.00,,,0.00,5.00,VWS V14.01,2013-08-22 22:51:00,
2013-08-22 18:56:00,71.1,70.2,29.90,SW,229,14.0,17.0,97,0.00,,,0.00,5.00,VWS V14.01,2013-08-22 22:56:00,
2013-08-22 19:00:00,71.0,70.1,29.89,South,182,22.0,23.0,97,0.00,,,0.00,192.00,VWS V14.01,2013-08-22 23:00:00,
2013-08-22 19:01:00,71.0,70.1,29.90,SW,228,12.0,14.0,97,0.00,,,0.00,5.00,VWS V14.01,2013-08-22 23:01:00,
2013-08-22 19:06:00,71.0,70.1,29.90,SW,222,14.0,17.0,97,0.00,,,0.00,5.00,VWS V14.01,2013-08-22 23:06:00,
2013-08-22 19:11:00,71.0,70.1,29.90,SW,227,18.0,19.0,97,0.00,,,0.00,0.00,VWS V14.01,2013-08-22 23:11:00,
2013-08-22 19:15:00,70.9,70.0,29.89,SSW,200,17.0,22.0,97,0.00,,,0.00,49.00,VWS V14.01,2013-08-22 23:15:00,
2013-08-22 19:16:00,71.2,70.6,29.90,SW,221,17.0,19.0,98,0.00,,,0.00,0.00,VWS V14.01,2013-08-22 23:16:00,
2013-08-22 19:21:00,71.2,70.3,29.90,SW,221,18.0,18.0,97,0.00,,,0.00,0.00,VWS V14.01,2013-08-22 23:21:00,
2013-08-22 19:26:00,71.3,70.4,29.90,SSW,213,16.0,18.0,97,0.00,,,0.00,0.00,VWS V14.01,2013-08-22 23:26:00,
2013-08-22 19:30:00,71.0,70.1,29.89,SW,229,16.0,19.0,97,0.00,,,0.00,25.00,VWS V14.01,2013-08-22 23:30:00,
2013-08-22 19:31:00,71.2,70.3,29.90,SW,217,15.0,19.0,97,0.00,,,0.00,0.00,VWS V14.01,2013-08-22 23:31:00,
2013-08-22 19:36:00,71.3,70.4,29.90,SW,225,16.0,18.0,97,0.00,,,0.00,0.00,VWS V14.01,2013-08-22 23:36:00,
2013-08-22 19:41:00,71.3,70.4,29.90,SW,222,16.0,19.0,97,0.00,,,0.00,0.00,VWS V14.01,2013-08-22 23:41:00,
2013-08-22 19:45:00,70.9,70.0,29.90,SW,223,17.0,17.0,97,0.00,,,0.00,11.00,VWS V14.01,2013-08-22 23:45:00,
2013-08-22 19:46:00,71.3,70.4,29.90,SW,221,15.0,15.0,97,0.00,,,0.00,0.00,VWS V14.01,2013-08-22 23:46:00,
2013-08-22 19:51:00,71.3,70.4,29.90,SW,221,19.0,20.0,97,0.00,,,0.00,0.00,VWS V14.01,2013-08-22 23:51:00,
2013-08-22 19:56:00,71.3,70.4,29.90,SSW,213,16.0,21.0,97,0.00,,,0.00,0.00,VWS V14.01,2013-08-22 23:56:00,
2013-08-22 20:00:00,71.1,70.2,29.90,SW,219,14.0,17.0,97,0.00,,,0.00,5.00,VWS V14.01,2013-08-23 00:00:00,
2013-08-22 20:01:00,71.4,70.5,29.90,SW,223,16.0,17.0,97,0.00,,,0.00,0.00,VWS V14.01,2013-08-23 00:01:00,
2013-08-22 20:06:00,71.4,70.5,29.90,SW,221,17.0,19.0,97,0.00,,,0.00,0.00,VWS V14.01,2013-08-23 00:06:00,
2013-08-22 20:11:00,71.3,70.4,29.90,SSW,212,13.0,19.0,97,0.00,,,0.00,0.00,VWS V14.01,2013-08-23 00:11:00,
2013-08-22 20:15:00,71.2,70.6,29.90,SW,221,17.0,19.0,98,0.00,,,0.00,0.00,VWS V14.01,2013-08-23 00:15:00,
2013-08-22 20:16:00,71.4,70.5,29.90,SW,215,14.0,14.0,97,0.00,,,0.00,0.00,VWS V14.01,2013-08-23 00:16:00,
2013-08-22 20:21:00,71.3,70.4,29.90,SW,221,16.0,17.0,97,0.00,,,0.00,0.00,VWS V14.01,2013-08-23 00:21:00,
2013-08-22 20:26:00,71.2,70.3,29.90,SW,219,11.0,17.0,97,0.00,,,0.00,0.00,VWS V14.01,2013-08-23 00:26:00,
2013-08-22 20:30:00,71.2,70.3,29.90,SW,217,15.0,19.0,97,0.00,,,0.00,0.00,VWS V14.01,2013-08-23 00:30:00,
2013-08-22 20:31:00,71.1,70.2,29.90,SSW,202,12.0,12.0,97,0.00,,,0.00,0.00,VWS V14.01,2013-08-23 00:31:00,
2013-08-22 20:36:00,71.0,70.1,29.90,SSW,205,11.0,14.0,97,0.00,,,0.00,0.00,VWS V14.01,2013-08-23 00:36:00,
2013-08-22 20:41:00,71.0,70.1,29.90,SSW,193,11.0,15.0,97,0.00,,,0.00,0.00,VWS V14.01,2013-08-23 00:41:00,
2013-08-22 20:45:00,71.3,70.4,29.90,SSW,208,15.0,19.0,97,0.00,,,0.00,0.00,VWS V14.01,2013-08-23 00:45:00,
2013-08-22 20:46:00,70.9,70.0,29.89,South,190,13.0,14.0,97,0.00,,,0.00,0.00,VWS V14.01,2013-08-23 00:46:00,
2013-08-22 20:51:00,70.8,69.9,29.89,SSW,195,13.0,17.0,97,0.00,,,0.00,0.00,VWS V14.01,2013-08-23 00:51:00,
2013-08-22 20:56:00,70.8,69.9,29.89,South,184,12.0,17.0,97,0.00,,,0.00,0.00,VWS V14.01,2013-08-23 00:56:00,
2013-08-22 21:01:00,70.9,70.0,29.89,SSW,192,15.0,15.0,97,0.00,,,0.00,0.00,VWS V14.01,2013-08-23 01:01:00,
2013-08-22 21:06:00,71.0,70.1,29.89,South,190,18.0,19.0,97,0.00,,,0.00,0.00,VWS V14.01,2013-08-23 01:06:00,
2013-08-22 21:11:00,71.0,70.1,29.89,SSW,197,17.0,20.0,97,0.00,,,0.00,0.00,VWS V14.01,2013-08-23 01:11:00,
2013-08-22 21:15:00,71.4,70.5,29.90,SW,215,14.0,19.0,97,0.00,,,0.00,0.00,VWS V14.01,2013-08-23 01:15:00,
2013-08-22 21:16:00,71.0,70.1,29.89,South,191,17.0,18.0,97,0.00,,,0.00,0.00,VWS V14.01,2013-08-23 01:16:00,
2013-08-22 21:21:00,70.9,70.0,29.89,SSW,192,18.0,19.0,97,0.00,,,0.00,0.00,VWS V14.01,2013-08-23 01:21:00,
2013-08-22 21:26:00,70.9,70.0,29.89,SSW,193,18.0,19.0,97,0.00,,,0.00,0.00,VWS V14.01,2013-08-23 01:26:00,
2013-08-22 21:30:00,71.2,70.3,29.90,SSW,205,12.0,17.0,97,0.00,,,0.00,0.00,VWS V14.01,2013-08-23 01:30:00,
2013-08-22 21:31:00,70.8,69.9,29.89,South,187,13.0,14.0,97,0.00,,,0.00,0.00,VWS V14.01,2013-08-23 01:31:00,
2013-08-22 21:36:00,70.8,69.9,29.89,South,190,15.0,18.0,97,0.00,,,0.00,0.00,VWS V14.01,2013-08-23 01:36:00,
2013-08-22 21:41:00,70.7,69.8,29.88,South,182,16.0,19.0,97,0.00,,,0.00,0.00,VWS V14.01,2013-08-23 01:41:00,
2013-08-22 21:45:00,70.9,70.0,29.90,SSW,199,14.0,16.0,97,0.00,,,0.00,0.00,VWS V14.01,2013-08-23 01:45:00,
2013-08-22 21:46:00,70.7,69.8,29.89,SSW,195,16.0,18.0,97,0.00,,,0.00,0.00,VWS V14.01,2013-08-23 01:46:00,
2013-08-22 21:51:00,70.7,69.8,29.89,SSW,192,14.0,18.0,97,0.00,,,0.00,0.00,VWS V14.01,2013-08-23 01:51:00,
2013-08-22 21:56:00,70.7,69.8,29.89,SSW,199,14.0,18.0,97,0.00,,,0.00,0.00,VWS V14.01,2013-08-23 01:56:00,
2013-08-22 22:00:00,70.9,70.0,29.89,South,186,12.0,18.0,97,0.00,,,0.00,0.00,VWS V14.01,2013-08-23 02:00:00,
2013-08-22 22:01:00,70.8,69.9,29.89,SSW,194,15.0,15.0,97,0.00,,,0.00,0.00,VWS V14.01,2013-08-23 02:01:00,
2013-08-22 22:06:00,70.8,69.9,29.89,SSW,202,14.0,18.0,97,0.00,,,0.00,0.00,VWS V14.01,2013-08-23 02:06:00,
2013-08-22 22:11:00,70.8,69.9,29.89,SSW,206,16.0,18.0,97,0.00,,,0.00,0.00,VWS V14.01,2013-08-23 02:11:00,
2013-08-22 22:16:00,70.8,69.9,29.89,SSW,209,17.0,17.0,97,0.00,,,0.00,0.00,VWS V14.01,2013-08-23 02:16:00,
2013-08-22 22:22:00,70.7,69.8,29.89,SSW,212,19.0,21.0,97,0.00,,,0.00,0.00,VWS V14.01,2013-08-23 02:22:00,
2013-08-22 22:27:00,70.7,69.8,29.88,SW,221,18.0,21.0,97,0.00,,,0.00,0.00,VWS V14.01,2013-08-23 02:27:00,
2013-08-22 22:30:00,70.8,69.9,29.89,South,186,14.0,19.0,97,0.00,,,0.00,0.00,VWS V14.01,2013-08-23 02:30:00,
2013-08-22 22:32:00,70.6,69.7,29.88,SW,220,15.0,19.0,97,0.00,,,0.00,0.00,VWS V14.01,2013-08-23 02:32:00,
2013-08-22 22:37:00,70.5,69.6,29.88,SW,226,13.0,19.0,97,0.00,,,0.00,0.00,VWS V14.01,2013-08-23 02:37:00,
2013-08-22 22:42:00,70.5,69.6,29.88,SW,217,16.0,19.0,97,0.00,,,0.00,0.00,VWS V14.01,2013-08-23 02:42:00,
2013-08-22 22:45:00,70.7,69.8,29.89,SSW,194,18.0,19.0,97,0.00,,,0.00,0.00,VWS V14.01,2013-08-23 02:45:00,
2013-08-22 22:47:00,70.5,69.6,29.88,SW,219,13.0,16.0,97,0.00,,,0.00,0.00,VWS V14.01,2013-08-23 02:47:00,
2013-08-22 22:52:00,70.5,69.6,29.88,SSW,208,15.0,17.0,97,0.00,,,0.00,0.00,VWS V14.01,2013-08-23 02:52:00,
2013-08-22 22:57:00,70.6,69.7,29.87,SW,215,16.0,17.0,97,0.00,,,0.00,0.00,VWS V14.01,2013-08-23 02:57:00,
2013-08-22 23:00:00,70.8,69.9,29.88,SSW,210,14.0,18.0,97,0.00,,,0.00,0.00,VWS V14.01,2013-08-23 03:00:00,
2013-08-22 23:02:00,70.7,69.8,29.87,SSW,213,15.0,17.0,97,0.00,,,0.00,0.00,VWS V14.01,2013-08-23 03:02:00,
2013-08-22 23:07:00,70.8,69.9,29.87,SW,214,15.0,20.0,97,0.00,,,0.00,0.00,VWS V14.01,2013-08-23 03:07:00,
2013-08-22 23:12:00,71.0,70.1,29.86,SW,215,20.0,21.0,97,0.00,,,0.00,0.00,VWS V14.01,2013-08-23 03:12:00,
2013-08-22 23:15:00,70.8,69.9,29.89,SSW,209,17.0,20.0,97,0.00,,,0.00,0.00,VWS V14.01,2013-08-23 03:15:00,
2013-08-22 23:17:00,71.0,70.1,29.87,SW,222,18.0,20.0,97,0.00,,,0.00,0.00,VWS V14.01,2013-08-23 03:17:00,
2013-08-22 23:22:00,71.1,70.2,29.86,SSW,209,16.0,21.0,97,0.00,,,0.00,0.00,VWS V14.01,2013-08-23 03:22:00,
2013-08-22 23:27:00,71.1,70.2,29.86,SW,236,16.0,21.0,97,0.00,,,0.00,0.00,VWS V14.01,2013-08-23 03:27:00,
2013-08-22 23:32:00,71.1,70.2,29.86,SW,224,19.0,21.0,97,0.00,,,0.00,0.00,VWS V14.01,2013-08-23 03:32:00,
2013-08-22 23:37:00,70.9,70.0,29.86,SW,231,22.0,29.0,97,0.00,,,0.00,0.00,VWS V14.01,2013-08-23 03:37:00,
2013-08-22 23:42:00,71.0,69.8,29.86,SW,236,24.0,29.0,96,0.00,,,0.00,0.00,VWS V14.01,2013-08-23 03:42:00,
2013-08-22 23:45:00,70.5,69.6,29.88,SSW,204,13.0,19.0,97,0.00,,,0.00,0.00,VWS V14.01,2013-08-23 03:45:00,
2013-08-22 23:47:00,71.2,70.0,29.86,SW,235,20.0,22.0,96,0.00,,,0.00,0.00,VWS V14.01,2013-08-23 03:47:00,
2013-08-22 23:52:00,71.1,69.9,29.86,SW,232,21.0,25.0,96,0.00,,,0.00,0.00,VWS V14.01,2013-08-23 03:52:00,
2013-08-22 23:57:00,71.1,69.9,29.86,SW,233,20.0,25.0,96,0.00,,,0.00,0.00,VWS V14.01,2013-08-23 03:57:00,